Bayway, Texas
Current Conditions -  °F | °C
As of 9:50 AM on Wednesday 26 Nov 2014 (Local Time) from KEFD Reporting Station
Clear Clear  
Wind Chill: 68°   Ceiling: Unl
Heat Index: 68°   Visibility: 10mi
Dew Point: 45°   Wind: 13mph
Humidity: 43%   Direction: 220°SW
Pressure: 30.27"   Gusts: NA
Location:  29.7803°N, 94.894°W
Report Text: KEFD 261550Z 22011KT 10SM CLR 20/07 A3027
Loading
Personal Weather Stations






























Interactive Weather Map New forecast layout! Learn more

10-Day Weather Forecast

Advertisements
Track Severe Weather on mobile